Manistique, MI

7:49 AM EDT on October 17, 2017 (GMT -0400)
Schoolcraft County

Weather History for KISQ - December, 2012

Change the Weather History Date:

Sunday, December 30, 2012

  Actual Average Record
Temperature  
Mean Temperature 22 °F -  
Max Temperature 24 °F 26 °F 46 °F (1979)
Min Temperature 21 °F 9 °F -25 °F (1976)
Degree Days  
Heating Degree Days 42    
Moisture  
Dew Point 17 °F    
Average Humidity 78    
Maximum Humidity 93    
Minimum Humidity 64    
Precipitation  
Precipitation 0.00 in - - ()
Sea Level Pressure  
Sea Level Pressure 30.06 in    
Wind  
Wind Speed 6 mph (WSW)    
Max Wind Speed 14 mph    
Max Gust Speed 18 mph    
Visibility 10 miles    
Events Snow    
Averages and records for this station are not official NWS values.
T = Trace of Precipitation, MM = Missing Value Source: NWS Daily Summary

Daily Weather History Graph

Daily Weather History Graph

Search for Another Location

Airport or City:

Trip Planner

Search our weather history database for the weather conditions in past years. The results will help you decide how hot, cold, wet, or windy it might be!

Date:

Astronomy

Dec. 30, 2012 Rise Set
Actual Time 8:26 AM EST 5:08 PM EST
Civil Twilight 7:51 AM EST 5:43 PM EST
Nautical Twilight 7:14 AM EST 6:21 PM EST
Astronomical Twilight 6:37 AM EST 6:57 PM EST
Moon 7:48 PM EST (12/30) 9:27 AM EST (12/30)
Length of Visible Light 9h 51m
Length of Day
8h 42m
Waning Gibbous, 95% of the Moon is Illuminated
Dec 30
Waning Gibbous
Jan 4
Last Quarter
Jan 11
New
Jan 18
First Quarter
Jan 26
Full

Hourly Weather History & Observations

Time (EST) Temp. Windchill Dew Point Humidity Pressure Visibility Wind Dir Wind Speed Gust Speed Precip Events Conditions
12:15 AM 21.2 °F 16.4 °F 17.6 °F 86% 30.03 in 10.0 mi West 3.5 mph - N/A   Overcast
12:35 AM 21.2 °F 16.4 °F 17.6 °F 86% 30.02 in 10.0 mi West 3.5 mph - N/A Snow Light Snow
12:54 AM 21.2 °F 16.4 °F 17.6 °F 86% 30.02 in 10.0 mi West 3.5 mph - N/A Snow Light Snow
1:15 AM 21.2 °F 16.4 °F 17.6 °F 86% 30.02 in 10.0 mi WNW 3.5 mph - N/A   Overcast
1:34 AM 21.2 °F 14.9 °F 17.6 °F 86% 30.02 in 10.0 mi WNW 4.6 mph - N/A   Overcast
1:55 AM 21.2 °F 13.6 °F 19.4 °F 93% 30.03 in 10.0 mi WNW 5.8 mph - N/A   Overcast
2:15 AM 21.2 °F 13.6 °F 19.4 °F 93% 30.04 in 10.0 mi WNW 5.8 mph - N/A Snow Light Snow
2:34 AM 23.0 °F 14.7 °F 19.4 °F 86% 30.04 in 10.0 mi West 6.9 mph - N/A Snow Light Snow
2:55 AM 23.0 °F 17.0 °F 17.6 °F 80% 30.05 in 10.0 mi West 4.6 mph - N/A   Overcast
3:14 AM 23.0 °F 18.4 °F 17.6 °F 80% 30.05 in 10.0 mi WSW 3.5 mph - N/A   Overcast
3:35 AM 23.0 °F 15.8 °F 17.6 °F 80% 30.06 in 10.0 mi West 5.8 mph - N/A Snow Light Snow
3:55 AM 23.0 °F 14.7 °F 17.6 °F 80% 30.06 in 10.0 mi West 6.9 mph - N/A   Overcast
4:14 AM 23.0 °F 15.8 °F 17.6 °F 80% 30.06 in 10.0 mi West 5.8 mph - N/A   Overcast
4:35 AM 23.0 °F 15.8 °F 17.6 °F 80% 30.07 in 10.0 mi West 5.8 mph - N/A   Overcast
4:55 AM 23.0 °F 17.0 °F 17.6 °F 80% 30.07 in 10.0 mi West 4.6 mph - N/A   Overcast
5:14 AM 23.0 °F 18.4 °F 17.6 °F 80% 30.08 in 10.0 mi West 3.5 mph - N/A   Overcast
5:35 AM 23.0 °F 17.0 °F 17.6 °F 80% 30.08 in 10.0 mi West 4.6 mph - N/A   Overcast
5:54 AM 23.0 °F 18.4 °F 17.6 °F 80% 30.08 in 10.0 mi West 3.5 mph - N/A   Overcast
6:14 AM 21.2 °F 14.9 °F 15.8 °F 80% 30.09 in 10.0 mi West 4.6 mph - N/A   Overcast
6:35 AM 21.2 °F 14.9 °F 15.8 °F 80% 30.10 in 10.0 mi West 4.6 mph - N/A   Overcast
6:54 AM 21.2 °F 16.4 °F 15.8 °F 80% 30.11 in 10.0 mi WSW 3.5 mph - N/A   Overcast
7:35 AM 21.2 °F 16.4 °F 15.8 °F 80% 30.12 in 10.0 mi West 3.5 mph - N/A   Overcast
7:54 AM 21.2 °F 14.9 °F 15.8 °F 80% 30.13 in 10.0 mi West 4.6 mph - N/A   Overcast
8:15 AM 21.2 °F 14.9 °F 15.8 °F 80% 30.13 in 10.0 mi West 4.6 mph - N/A   Overcast
8:35 AM 21.2 °F 14.9 °F 14.0 °F 74% 30.13 in 10.0 mi West 4.6 mph - N/A   Overcast
8:54 AM 21.2 °F 16.4 °F 14.0 °F 74% 30.13 in 10.0 mi WSW 3.5 mph - N/A   Overcast
9:15 AM 21.2 °F 16.4 °F 12.2 °F 68% 30.13 in 10.0 mi WNW 3.5 mph - N/A   Scattered Clouds
9:34 AM 21.2 °F 14.9 °F 12.2 °F 68% 30.14 in 10.0 mi WNW 4.6 mph - N/A   Clear
9:55 AM 21.2 °F 13.6 °F 12.2 °F 68% 30.13 in 10.0 mi WNW 5.8 mph - N/A   Clear
10:15 AM 21.2 °F 11.7 °F 14.0 °F 74% 30.14 in 10.0 mi WNW 8.1 mph - N/A   Clear
10:34 AM 23.0 °F 14.7 °F 14.0 °F 68% 30.14 in 10.0 mi West 6.9 mph - N/A   Clear
10:55 AM 23.0 °F 15.8 °F 14.0 °F 68% 30.15 in 10.0 mi West 5.8 mph - N/A   Clear
11:14 AM 24.8 °F 19.1 °F 14.0 °F 64% 30.14 in 10.0 mi WSW 4.6 mph - N/A   Clear
11:35 AM 24.8 °F 20.5 °F 14.0 °F 64% 30.14 in 10.0 mi SSW 3.5 mph - N/A   Clear
11:55 AM 24.8 °F 16.9 °F 15.8 °F 69% 30.14 in 10.0 mi SSW 6.9 mph - N/A   Clear
12:14 PM 24.8 °F 16.1 °F 15.8 °F 69% 30.14 in 10.0 mi SW 8.1 mph - N/A   Clear
12:35 PM 23.0 °F 13.9 °F 14.0 °F 68% 30.12 in 10.0 mi SW 8.1 mph - N/A   Scattered Clouds
12:54 PM 23.0 °F 17.0 °F 14.0 °F 68% 30.12 in 10.0 mi WSW 4.6 mph - N/A   Scattered Clouds
1:15 PM 24.8 °F 17.9 °F 15.8 °F 69% 30.12 in 10.0 mi WSW 5.8 mph - N/A   Overcast
1:34 PM 24.8 °F 17.9 °F 15.8 °F 69% 30.11 in 10.0 mi SW 5.8 mph - N/A   Overcast
1:55 PM 23.0 °F 14.7 °F 15.8 °F 74% 30.11 in 10.0 mi SW 6.9 mph - N/A   Overcast
2:15 PM 23.0 °F 15.8 °F 15.8 °F 74% 30.10 in 10.0 mi SSW 5.8 mph - N/A   Overcast
2:34 PM 23.0 °F 15.8 °F 15.8 °F 74% 30.09 in 10.0 mi SW 5.8 mph - N/A   Overcast
2:55 PM 23.0 °F 13.9 °F 15.8 °F 74% 30.09 in 10.0 mi SSW 8.1 mph 11.5 mph N/A   Overcast
3:14 PM 23.0 °F 13.9 °F 15.8 °F 74% 30.09 in 10.0 mi SSW 8.1 mph - N/A   Overcast
3:34 PM 23.0 °F 14.7 °F 15.8 °F 74% 30.09 in 10.0 mi SW 6.9 mph - N/A   Overcast
3:55 PM 21.2 °F 12.6 °F 15.8 °F 80% 30.09 in 10.0 mi WSW 6.9 mph - N/A   Mostly Cloudy
4:14 PM 21.2 °F 13.6 °F 15.8 °F 80% 30.08 in 10.0 mi WSW 5.8 mph - N/A   Mostly Cloudy
4:35 PM 21.2 °F 13.6 °F 15.8 °F 80% 30.08 in 10.0 mi SW 5.8 mph - N/A   Mostly Cloudy
4:54 PM 21.2 °F 12.6 °F 15.8 °F 80% 30.06 in 10.0 mi SW 6.9 mph - N/A   Mostly Cloudy
5:14 PM 21.2 °F 13.6 °F 15.8 °F 80% 30.05 in 10.0 mi SW 5.8 mph - N/A   Mostly Cloudy
5:40 PM 21.2 °F 12.6 °F 15.8 °F 80% 30.06 in 10.0 mi SW 6.9 mph - N/A   Overcast
5:59 PM 21.2 °F 10.9 °F 17.6 °F 86% 30.05 in 10.0 mi SW 9.2 mph - N/A   Mostly Cloudy
6:35 PM 23.0 °F 13.1 °F 17.6 °F 80% 30.04 in 10.0 mi SW 9.2 mph 17.3 mph N/A   Clear
6:54 PM 23.0 °F 12.4 °F 17.6 °F 80% 30.04 in 10.0 mi SW 10.4 mph - N/A   Clear
7:15 PM 23.0 °F 11.7 °F 17.6 °F 80% 30.04 in 10.0 mi SW 11.5 mph 17.3 mph N/A   Scattered Clouds
7:34 PM 23.0 °F 11.7 °F 19.4 °F 86% 30.02 in 10.0 mi SSW 11.5 mph - N/A   Scattered Clouds
7:55 PM 24.8 °F 14.0 °F 19.4 °F 80% 30.01 in 10.0 mi SSW 11.5 mph 18.4 mph N/A   Overcast
8:14 PM 24.8 °F 14.6 °F 19.4 °F 80% 30.02 in 10.0 mi SSW 10.4 mph 18.4 mph N/A   Mostly Cloudy
8:35 PM 24.8 °F 13.4 °F 19.4 °F 80% 30.01 in 10.0 mi SW 12.7 mph 18.4 mph N/A   Overcast
8:54 PM 24.8 °F 13.4 °F 19.4 °F 80% 30.00 in 10.0 mi SSW 12.7 mph 17.3 mph N/A   Overcast
9:14 PM 24.8 °F 12.9 °F 21.2 °F 86% 29.99 in 10.0 mi SSW 13.8 mph 18.4 mph N/A   Overcast
9:35 PM 24.8 °F 14.0 °F 21.2 °F 86% 29.98 in 10.0 mi SW 11.5 mph 18.4 mph N/A   Overcast
9:54 PM 24.8 °F 14.6 °F 21.2 °F 86% 29.97 in 10.0 mi SW 10.4 mph - N/A   Overcast
10:15 PM 24.8 °F 15.3 °F 21.2 °F 86% 29.97 in 7.0 mi SW 9.2 mph 17.3 mph N/A   Overcast
10:35 PM 24.8 °F 15.3 °F 21.2 °F 86% 29.96 in 10.0 mi SW 9.2 mph 18.4 mph N/A   Overcast
10:54 PM 24.8 °F 14.0 °F 19.4 °F 80% 29.94 in 7.0 mi SSW 11.5 mph 16.1 mph N/A   Scattered Clouds
11:15 PM 24.8 °F 15.3 °F 19.4 °F 80% 29.94 in 10.0 mi SW 9.2 mph 16.1 mph N/A   Clear
11:34 PM 24.8 °F 14.0 °F 19.4 °F 80% 29.93 in 10.0 mi SSW 11.5 mph - N/A   Scattered Clouds
11:55 PM 24.8 °F 14.6 °F 19.4 °F 80% 29.92 in 10.0 mi SW 10.4 mph - N/A   Mostly Cloudy